• Join FlightAware (Why Join?)
  • Login
  • US Flag 
12:01PM EDT


 

Airport Tracker/Info


-or-


 

Live Flight TrackerFlight Track Log ✈ ASQ6150 ✈ 23-May-2013 ✈ KORD - KORF

Flight Track Log - Related Links

Times and Time Zones

All times are in EDT time to prevent confusion due to time zone crossing. See the ASQ6150 flight status page for this flight to view local times or setup timezone preferences in your user account.

Time Position Orientation Groundspeed Altitude Reporting Facility
EDT Latitude Longitude Course Direction KTS MPH feet Rate Location/Type
05:13PM 39.4350 -86.0532 119° Southeast  Level FlightAware Approximate
05:14PM 39.3793 -85.9260 119° Southeast  Level FlightAware Approximate
05:15PM 39.3235 -85.7990 120° Southeast  Level FlightAware Approximate
05:16PM 39.2675 -85.6722 120° Southeast  Level FlightAware Approximate
05:17PM 39.2114 -85.5456 120° Southeast  Level FlightAware Approximate
05:18PM 39.1551 -85.4193 120° Southeast  Level FlightAware Approximate
05:19PM 39.0983 -85.2934 121° Southeast  Level FlightAware Approximate
05:20PM 39.0408 -85.1682 121° Southeast  Level FlightAware Approximate
05:21PM 38.9831 -85.0432 121° Southeast  Level FlightAware Approximate
05:22PM 38.9252 -84.9184 121° Southeast  Level FlightAware Approximate
05:23PM 38.8691 -84.7924 120° Southeast  Level FlightAware Approximate
05:24PM 38.8132 -84.6664 120° Southeast  Level FlightAware Approximate
05:25PM 38.7571 -84.5406 120° Southeast  Level FlightAware Approximate
05:26PM 38.6984 -84.4170 125° Southeast  Level FlightAware Approximate
05:27PM 38.6332 -84.2990 97° East  Level FlightAware Approximate
05:28PM 38.6190 -84.1555 97° East  Level FlightAware Approximate
05:29PM 38.6047 -84.0121 97° East  Level FlightAware Approximate
05:30PM 38.5901 -83.8688 97° East  Level FlightAware Approximate
05:31PM 38.5754 -83.7255 97° East  Level FlightAware Approximate
05:32PM 38.5606 -83.5823 98° East  Level FlightAware Approximate
05:33PM 38.5455 -83.4391 98° East  Level FlightAware Approximate
05:34PM 38.5303 -83.2960 98° East  Level FlightAware Approximate
05:35PM 38.5149 -83.1530 98° East  Level FlightAware Approximate
05:36PM 38.4991 -83.0100 99° East  Level FlightAware Approximate
05:37PM 38.4809 -82.8676 99° East  Level FlightAware Approximate
05:38PM 38.4624 -82.7252 99° East  Level FlightAware Approximate
05:39PM 38.4438 -82.5830 99° East  Level FlightAware Approximate
05:40PM 38.4250 -82.4408 100° East  Level FlightAware Approximate
05:41PM 38.4060 -82.2986 100° East  Level FlightAware Approximate
05:42PM 38.3868 -82.1566 100° East  Level FlightAware Approximate
05:43PM 38.3675 -82.0146 100° East  Level FlightAware Approximate
05:44PM 38.3480 -81.8727 100° East  Level FlightAware Approximate
05:45PM 38.3283 -81.7309 100° East  Level FlightAware Approximate
05:46PM 38.3082 -81.5892 100° East  Level FlightAware Approximate
05:47PM 38.2880 -81.4476 100° East  Level FlightAware Approximate
05:48PM 38.2675 -81.3060 100° East  Level FlightAware Approximate
05:49PM 38.2451 -81.1650 101° East  Level FlightAware Approximate
05:50PM 38.2225 -81.0241 102° East  Level FlightAware Approximate
05:51PM 38.1996 -80.8833 102° East  Level FlightAware Approximate
05:52PM 38.1766 -80.7426 102° East  Level FlightAware Approximate
05:53PM 38.1545 -80.6017 101° East  Level FlightAware Approximate
05:54PM 38.1334 -80.4606 101° East  Level FlightAware Approximate
05:55PM 38.1112 -80.3198 103° East  Level FlightAware Approximate
05:56PM 38.0859 -80.1799 103° East  Level FlightAware Approximate
05:57PM 38.0604 -80.0401 103° East  Level FlightAware Approximate
05:58PM 38.0343 -79.9005 103° East  Level FlightAware Approximate
05:59PM 38.0078 -79.7611 104° East  Level FlightAware Approximate
06:00PM 37.9833 -79.6215 90° East  Level FlightAware Approximate
06:01PM 37.9633 -79.4806 102° East  Level FlightAware Approximate
06:02PM 37.9391 -79.3406 102° East  Level FlightAware Approximate
06:03PM 37.9147 -79.2008 102° East  Level FlightAware Approximate
06:04PM 37.8887 -79.0623 111° Southeast  Level FlightAware Approximate
06:05PM 37.8487 -78.9285 111° Southeast  Level FlightAware Approximate
06:06PM 37.8085 -78.7948 111° Southeast  Level FlightAware Approximate
06:07PM 37.7710 -78.6600 109° East  Level FlightAware Approximate
06:08PM 37.7314 -78.5262 109° East  Level FlightAware Approximate
06:09PM 37.6946 -78.3912 109° East  Level FlightAware Approximate
06:10PM 37.6530 -78.2586 113° Southeast  Level FlightAware Approximate
06:11PM 37.6091 -78.1272 113° Southeast  Level FlightAware Approximate
06:12PM 37.5718 -77.9957 111° Southeast  Level FlightAware Approximate
06:13PM 37.5309 -77.8629 111° Southeast  Level FlightAware Approximate
06:14PM 37.5100 -77.7242 95° East  Level FlightAware Approximate
06:15PM 37.4995 -77.5824 95° East  Level FlightAware Approximate
06:16PM 37.4889 -77.4407 95° East  Level FlightAware Approximate
06:17PM 37.4777 -77.2990 96° East  Level FlightAware Approximate
06:18PM 37.4667 -77.1574 90° East  Level FlightAware Approximate
06:19PM 37.4667 -77.0151 90° East  Level FlightAware Approximate
06:20PM 37.4566 -76.8738 99° East  Level FlightAware Approximate
06:21PM 37.4378 -76.7335 100° East  Level FlightAware Approximate
06:22PM 37.4251 -76.5922 95° East  Level FlightAware Approximate
06:23PM 37.4028 -76.4555 122° Southeast  Level FlightAware Approximate
06:24PM 37.3036 -76.3955 154° Southeast  Level FlightAware Approximate
06:25PM 37.1971 -76.3524 160° South  Level FlightAware Approximate
06:26PM 37.0917 -76.3017 154° Southeast  Level FlightAware Approximate
06:27PM 36.9885 -76.2443 158° South  Level FlightAware Approximate
06:28PM 36.8946 -76.2012 162° South  Level Estimated
06:29PM 36.8946 -76.2012 162° South  Level Estimated
06:30PM 36.8946 -76.2012 162° South  Level Estimated
06:31PM 36.8946 -76.2012 162° South  Level Estimated
06:32PM 36.8946 -76.2012 162° South  Level Estimated
06:33PM 36.8946 -76.2012 162° South  Level Estimated
06:34PM 36.8946 -76.2012 162° South  Level Estimated
06:35PM 36.8946 -76.2012 162° South  Level Estimated
06:36PM 36.8946 -76.2012 162° South  Level Estimated
06:37PM 36.8946 -76.2012 162° South  Level Estimated
06:38PM 36.8946 -76.2012 162° South  Level Estimated